Obeliai — UIOL — position and weather

sailwx.info

Track history (hours):
 
Tides and Currents Weather Stations Pressure Air Temp Water Temp Dewpoint Dewpoint Depression Visibility Wind Speed Wind Dir Waves Ship Positions

Obeliai

Last reported at 2018-Apr-23 22:15 UTC. Time now 2018-Jun-24 22:27 UTC.
Position N 70°27' E 018°30'.
Warning: this ship's position is months out of date.

Length 62 m; draft 6.2 m.

Type: Fishing. MMSI: 273213010.

Date/timePositionNaut miles runAvg speedWind from/ knotsBaromVisibWave heightAir tempDewpointWater temp
2018-Apr-23 22:15N 70°27' E 018°30'312.9
2018-Apr-23 22:00N 70°28' E 018°39'612.9
2018-Apr-23 21:30N 70°31' E 018°56'612.5
2018-Apr-23 21:00N 70°34' E 019°13'612.5
2018-Apr-23 20:30N 70°37' E 019°30'612.7
2018-Apr-23 20:00N 70°40' E 019°47'4312.2
2018-Apr-23 16:29N 70°58' E 021°46'612.7
2018-Apr-23 15:59N 71°01' E 022°03'612.3
2018-Apr-23 15:29N 71°04' E 022°20'612.6
2018-Apr-23 15:00N 71°07' E 022°36'712.5
2018-Apr-23 14:28N 71°10' E 022°54'612.5
2018-Apr-23 13:58N 71°13' E 023°11'612.4
2018-Apr-23 13:29N 71°16' E 023°28'612.2
2018-Apr-23 13:00N 71°19' E 023°44'612.4
2018-Apr-23 12:30N 71°20' E 024°03'712.7
2018-Apr-23 11:59N 71°21' E 024°23'612.9
2018-Apr-23 11:30N 71°22' E 024°43'612.6
2018-Apr-23 10:59N 71°23' E 025°02'612.5
2018-Apr-23 10:30N 71°24' E 025°21'612.3
2018-Apr-23 10:00N 71°25' E 025°40'611.8
2018-Apr-23 09:30N 71°25' E 025°59'611.9
2018-Apr-23 09:00N 71°24' E 026°17'611.9
2018-Apr-23 08:29N 71°23' E 026°36'612.3
2018-Apr-23 08:00N 71°23' E 026°55'612.0
2018-Apr-23 07:29N 71°22' E 027°14'611.8
2018-Apr-23 06:58N 71°21' E 027°33'611.9
2018-Apr-23 06:30N 71°20' E 027°50'611.7
2018-Apr-23 06:00N 71°19' E 028°09'611.5
2018-Apr-23 05:30N 71°19' E 028°26'711.4
2018-Apr-23 04:56N 71°16' E 028°45'511.6
2018-Apr-23 04:29N 71°14' E 028°59'611.5
2018-Apr-23 03:59N 71°10' E 029°14'711.8
2018-Apr-23 03:22N 71°06' E 029°32'411.7
2018-Apr-23 03:00N 71°04' E 029°43'612.1
2018-Apr-23 02:28N 71°00' E 029°59'612.1
2018-Apr-23 02:00N 70°57' E 030°14'612.1
2018-Apr-23 01:30N 70°53' E 030°28'612.0
2018-Apr-23 01:00N 70°49' E 030°42'612.0
2018-Apr-23 00:28N 70°45' E 030°56'611.8
2018-Apr-22 23:59N 70°40' E 031°04'612.0
2018-Apr-22 23:29N 70°34' E 031°11'611.8
2018-Apr-22 23:00N 70°29' E 031°17'611.7
2018-Apr-22 22:29N 70°23' E 031°22'612.1
2018-Apr-22 22:00N 70°18' E 031°17'611.9
2018-Apr-22 21:30N 70°12' E 031°08'612.4
2018-Apr-22 21:00N 70°08' E 030°55'612.2
2018-Apr-22 20:30N 70°04' E 030°42'612.3
2018-Apr-22 20:00N 69°60' E 030°29'612.5
2018-Apr-22 19:30N 69°55' E 030°16'13 1.1
2018-Apr-22 08:18N 69°44' E 030°02'0 0.0
2018-Apr-21 15:11N 69°44' E 030°02'0 0.0
2018-Apr-20 22:48N 69°44' E 030°02'0 0.0
2018-Apr-19 20:37N 69°44' E 030°02'0 0.0
2018-Apr-19 19:52N 69°44' E 030°02'0 0.0
2018-Apr-19 19:10N 69°44' E 030°02'0 0.0
2018-Apr-19 18:10N 69°44' E 030°02'0 0.0
2018-Apr-19 14:07N 69°44' E 030°02'0 0.0
2018-Apr-19 06:10N 69°44' E 030°02'0 0.0
2018-Apr-18 01:40N 69°44' E 030°02'0 0.0
2018-Apr-17 20:22N 69°44' E 030°02'0 0.0
2018-Apr-17 17:49N 69°44' E 030°02'0 0.0
2018-Apr-16 11:25N 69°44' E 030°02'2 4.0
2018-Apr-16 11:01N 69°45' E 030°04'2 4.7
2018-Apr-16 10:30N 69°47' E 030°05'2 3.6
2018-Apr-16 10:01N 69°49' E 030°06'4 8.2
2018-Apr-16 09:30N 69°53' E 030°08'611.8
2018-Apr-16 09:00N 69°57' E 030°20'612.1
2018-Apr-16 08:30N 70°02' E 030°33'611.9
2018-Apr-16 08:00N 70°06' E 030°45'612.2
2018-Apr-16 07:30N 70°10' E 030°58'611.9
2018-Apr-16 07:00N 70°14' E 031°10'611.2
2018-Apr-16 06:30N 70°19' E 031°20'612.1
2018-Apr-16 06:00N 70°25' E 031°18'612.6
2018-Apr-16 05:29N 70°31' E 031°12'612.5
2018-Apr-16 05:00N 70°37' E 031°07'612.4
2018-Apr-16 04:30N 70°43' E 031°01'712.8
2018-Apr-16 03:59N 70°47' E 030°46'612.9
2018-Apr-16 03:30N 70°51' E 030°32'712.8
2018-Apr-16 03:00N 70°56' E 030°17'612.7
2018-Apr-16 02:29N 70°60' E 030°03'612.8
2018-Apr-16 02:00N 71°04' E 029°49'612.7
2018-Apr-16 01:30N 71°08' E 029°34'612.5
2018-Apr-16 00:59N 71°13' E 029°19'612.3
2018-Apr-16 00:30N 71°17' E 029°05'612.3
2018-Apr-16 00:00N 71°21' E 028°51'  
Track history (hours):
 
Tides and Currents Weather Stations Pressure Air Temp Water Temp Dewpoint Dewpoint Depression Visibility Wind Speed Wind Dir Waves Ship Positions

Obeliai

Last reported at 2018-Apr-23 22:15 UTC. Time now 2018-Jun-24 22:27 UTC.
Position N 70°27' E 018°30'.
Warning: this ship's position is months out of date.

Length 62 m; draft 6.2 m.

Type: Fishing. MMSI: 273213010.

Date/timePositionNaut miles runAvg speedWind from/ knotsBaromVisibWave heightAir tempDewpointWater temp
2018-Apr-23 22:15N 70°27' E 018°30'312.9
2018-Apr-23 22:00N 70°28' E 018°39'612.9
2018-Apr-23 21:30N 70°31' E 018°56'612.5
2018-Apr-23 21:00N 70°34' E 019°13'612.5
2018-Apr-23 20:30N 70°37' E 019°30'612.7
2018-Apr-23 20:00N 70°40' E 019°47'4312.2
2018-Apr-23 16:29N 70°58' E 021°46'612.7
2018-Apr-23 15:59N 71°01' E 022°03'612.3
2018-Apr-23 15:29N 71°04' E 022°20'612.6
2018-Apr-23 15:00N 71°07' E 022°36'712.5
2018-Apr-23 14:28N 71°10' E 022°54'612.5
2018-Apr-23 13:58N 71°13' E 023°11'612.4
2018-Apr-23 13:29N 71°16' E 023°28'612.2
2018-Apr-23 13:00N 71°19' E 023°44'612.4
2018-Apr-23 12:30N 71°20' E 024°03'712.7
2018-Apr-23 11:59N 71°21' E 024°23'612.9
2018-Apr-23 11:30N 71°22' E 024°43'612.6
2018-Apr-23 10:59N 71°23' E 025°02'612.5
2018-Apr-23 10:30N 71°24' E 025°21'612.3
2018-Apr-23 10:00N 71°25' E 025°40'611.8
2018-Apr-23 09:30N 71°25' E 025°59'611.9
2018-Apr-23 09:00N 71°24' E 026°17'611.9
2018-Apr-23 08:29N 71°23' E 026°36'612.3
2018-Apr-23 08:00N 71°23' E 026°55'612.0
2018-Apr-23 07:29N 71°22' E 027°14'611.8
2018-Apr-23 06:58N 71°21' E 027°33'611.9
2018-Apr-23 06:30N 71°20' E 027°50'611.7
2018-Apr-23 06:00N 71°19' E 028°09'611.5
2018-Apr-23 05:30N 71°19' E 028°26'711.4
2018-Apr-23 04:56N 71°16' E 028°45'511.6
2018-Apr-23 04:29N 71°14' E 028°59'611.5
2018-Apr-23 03:59N 71°10' E 029°14'711.8
2018-Apr-23 03:22N 71°06' E 029°32'411.7
2018-Apr-23 03:00N 71°04' E 029°43'612.1
2018-Apr-23 02:28N 71°00' E 029°59'612.1
2018-Apr-23 02:00N 70°57' E 030°14'612.1
2018-Apr-23 01:30N 70°53' E 030°28'612.0
2018-Apr-23 01:00N 70°49' E 030°42'612.0
2018-Apr-23 00:28N 70°45' E 030°56'611.8
2018-Apr-22 23:59N 70°40' E 031°04'612.0
2018-Apr-22 23:29N 70°34' E 031°11'611.8
2018-Apr-22 23:00N 70°29' E 031°17'611.7
2018-Apr-22 22:29N 70°23' E 031°22'612.1
2018-Apr-22 22:00N 70°18' E 031°17'611.9
2018-Apr-22 21:30N 70°12' E 031°08'612.4
2018-Apr-22 21:00N 70°08' E 030°55'612.2
2018-Apr-22 20:30N 70°04' E 030°42'612.3
2018-Apr-22 20:00N 69°60' E 030°29'612.5
2018-Apr-22 19:30N 69°55' E 030°16'13 1.1
2018-Apr-22 08:18N 69°44' E 030°02'0 0.0
2018-Apr-21 15:11N 69°44' E 030°02'0 0.0
2018-Apr-20 22:48N 69°44' E 030°02'0 0.0
2018-Apr-19 20:37N 69°44' E 030°02'0 0.0
2018-Apr-19 19:52N 69°44' E 030°02'0 0.0
2018-Apr-19 19:10N 69°44' E 030°02'0 0.0
2018-Apr-19 18:10N 69°44' E 030°02'0 0.0
2018-Apr-19 14:07N 69°44' E 030°02'0 0.0
2018-Apr-19 06:10N 69°44' E 030°02'0 0.0
2018-Apr-18 01:40N 69°44' E 030°02'0 0.0
2018-Apr-17 20:22N 69°44' E 030°02'0 0.0
2018-Apr-17 17:49N 69°44' E 030°02'0 0.0
2018-Apr-16 11:25N 69°44' E 030°02'2 4.0
2018-Apr-16 11:01N 69°45' E 030°04'2 4.7
2018-Apr-16 10:30N 69°47' E 030°05'2 3.6
2018-Apr-16 10:01N 69°49' E 030°06'4 8.2
2018-Apr-16 09:30N 69°53' E 030°08'611.8
2018-Apr-16 09:00N 69°57' E 030°20'612.1
2018-Apr-16 08:30N 70°02' E 030°33'611.9
2018-Apr-16 08:00N 70°06' E 030°45'612.2
2018-Apr-16 07:30N 70°10' E 030°58'611.9
2018-Apr-16 07:00N 70°14' E 031°10'611.2
2018-Apr-16 06:30N 70°19' E 031°20'612.1
2018-Apr-16 06:00N 70°25' E 031°18'612.6
2018-Apr-16 05:29N 70°31' E 031°12'612.5
2018-Apr-16 05:00N 70°37' E 031°07'612.4
2018-Apr-16 04:30N 70°43' E 031°01'712.8
2018-Apr-16 03:59N 70°47' E 030°46'612.9
2018-Apr-16 03:30N 70°51' E 030°32'712.8
2018-Apr-16 03:00N 70°56' E 030°17'612.7
2018-Apr-16 02:29N 70°60' E 030°03'612.8
2018-Apr-16 02:00N 71°04' E 029°49'612.7
2018-Apr-16 01:30N 71°08' E 029°34'612.5
2018-Apr-16 00:59N 71°13' E 029°19'612.3
2018-Apr-16 00:30N 71°17' E 029°05'612.3
2018-Apr-16 00:00N 71°21' E 028°51'  

Dump ship's entire track history